sensor_id;sensor_type;location;lat;lon;timestamp;pressure;altitude;pressure_sealevel;temperature;humidity
35716;BME280;21840;44.920;8.616;2022-12-07T00:01:36;100287.50;;;7.03;60.71
35716;BME280;21840;44.920;8.616;2022-12-07T00:04:04;100283.47;;;6.99;59.79
35716;BME280;21840;44.920;8.616;2022-12-07T00:06:32;100283.03;;;7.28;59.88
35716;BME280;21840;44.920;8.616;2022-12-07T00:08:58;100275.31;;;6.80;60.39
35716;BME280;21840;44.920;8.616;2022-12-07T00:11:24;100283.22;;;7.02;60.94
35716;BME280;21840;44.920;8.616;2022-12-07T00:13:58;100278.44;;;7.31;60.23
35716;BME280;21840;44.920;8.616;2022-12-07T00:16:26;100269.59;;;7.10;60.40
35716;BME280;21840;44.920;8.616;2022-12-07T00:18:52;100263.88;;;7.05;59.83
35716;BME280;21840;44.920;8.616;2022-12-07T00:21:19;100269.53;;;7.34;59.99
35716;BME280;21840;44.920;8.616;2022-12-07T00:23:45;100267.50;;;7.26;60.49
35716;BME280;21840;44.920;8.616;2022-12-07T00:26:16;100266.00;;;7.46;59.73
35716;BME280;21840;44.920;8.616;2022-12-07T00:28:50;100274.84;;;7.21;60.78
35716;BME280;21840;44.920;8.616;2022-12-07T00:31:19;100272.88;;;7.59;59.93
35716;BME280;21840;44.920;8.616;2022-12-07T00:33:45;100264.47;;;7.66;59.05
35716;BME280;21840;44.920;8.616;2022-12-07T00:36:14;100267.41;;;7.50;59.80
35716;BME280;21840;44.920;8.616;2022-12-07T00:38:40;100258.16;;;7.69;59.09
35716;BME280;21840;44.920;8.616;2022-12-07T00:41:16;100259.34;;;7.42;59.04
35716;BME280;21840;44.920;8.616;2022-12-07T00:43:43;100256.59;;;7.32;59.02
35716;BME280;21840;44.920;8.616;2022-12-07T00:46:10;100249.13;;;7.50;59.23
35716;BME280;21840;44.920;8.616;2022-12-07T00:48:36;100255.66;;;7.45;59.17
35716;BME280;21840;44.920;8.616;2022-12-07T00:51:02;100249.00;;;7.41;58.92
35716;BME280;21840;44.920;8.616;2022-12-07T00:53:28;100240.81;;;7.45;58.98
35716;BME280;21840;44.920;8.616;2022-12-07T00:55:53;100240.56;;;7.37;59.41
35716;BME280;21840;44.920;8.616;2022-12-07T00:58:20;100250.97;;;7.15;60.20
35716;BME280;21840;44.920;8.616;2022-12-07T01:00:46;100257.16;;;7.36;59.55
35716;BME280;21840;44.920;8.616;2022-12-07T01:03:13;100254.97;;;7.54;59.58
35716;BME280;21840;44.920;8.616;2022-12-07T01:05:39;100253.53;;;7.72;59.06
35716;BME280;21840;44.920;8.616;2022-12-07T01:08:05;100251.94;;;7.36;59.31
35716;BME280;21840;44.920;8.616;2022-12-07T01:10:31;100255.41;;;7.93;58.48
35716;BME280;21840;44.920;8.616;2022-12-07T01:12:57;100259.22;;;7.55;57.85
35716;BME280;21840;44.920;8.616;2022-12-07T01:15:23;100259.69;;;7.60;57.82
35716;BME280;21840;44.920;8.616;2022-12-07T01:17:49;100255.78;;;7.66;57.65
35716;BME280;21840;44.920;8.616;2022-12-07T01:20:15;100251.25;;;7.45;57.97
35716;BME280;21840;44.920;8.616;2022-12-07T01:22:41;100259.94;;;7.80;56.79
35716;BME280;21840;44.920;8.616;2022-12-07T01:25:08;100268.47;;;7.48;57.67
35716;BME280;21840;44.920;8.616;2022-12-07T01:27:34;100263.47;;;7.78;56.81
35716;BME280;21840;44.920;8.616;2022-12-07T01:30:02;100269.31;;;7.48;57.28
35716;BME280;21840;44.920;8.616;2022-12-07T01:32:29;100266.41;;;7.06;58.51
35716;BME280;21840;44.920;8.616;2022-12-07T01:34:54;100256.59;;;7.32;57.58
35716;BME280;21840;44.920;8.616;2022-12-07T01:37:20;100261.13;;;7.53;57.43
35716;BME280;21840;44.920;8.616;2022-12-07T01:39:50;100252.03;;;7.23;58.39
35716;BME280;21840;44.920;8.616;2022-12-07T01:42:16;100262.56;;;6.99;58.28
35716;BME280;21840;44.920;8.616;2022-12-07T01:45:50;100257.13;;;7.13;57.73
35716;BME280;21840;44.920;8.616;2022-12-07T01:47:57;100257.78;;;6.93;58.25
35716;BME280;21840;44.920;8.616;2022-12-07T01:50:26;100254.56;;;7.25;57.87
35716;BME280;21840;44.920;8.616;2022-12-07T01:52:54;100253.34;;;7.06;57.22
35716;BME280;21840;44.920;8.616;2022-12-07T01:55:22;100246.19;;;7.08;58.04
35716;BME280;21840;44.920;8.616;2022-12-07T01:57:49;100255.28;;;7.27;57.50
35716;BME280;21840;44.920;8.616;2022-12-07T02:00:16;100245.75;;;7.26;57.42
35716;BME280;21840;44.920;8.616;2022-12-07T02:02:57;100257.03;;;6.80;58.21
35716;BME280;21840;44.920;8.616;2022-12-07T02:05:26;100250.97;;;7.26;57.73
35716;BME280;21840;44.920;8.616;2022-12-07T02:07:55;100260.16;;;6.96;58.76
35716;BME280;21840;44.920;8.616;2022-12-07T02:12:51;100262.84;;;6.83;59.30
35716;BME280;21840;44.920;8.616;2022-12-07T02:15:20;100252.53;;;7.28;59.23
35716;BME280;21840;44.920;8.616;2022-12-07T02:17:50;100240.44;;;7.27;58.25
35716;BME280;21840;44.920;8.616;2022-12-07T02:20:25;100244.09;;;7.36;58.58
35716;BME280;21840;44.920;8.616;2022-12-07T02:23:04;100243.16;;;7.26;58.53
35716;BME280;21840;44.920;8.616;2022-12-07T02:28:16;100246.78;;;6.65;58.79
35716;BME280;21840;44.920;8.616;2022-12-07T02:30:47;100232.47;;;7.18;58.91
35716;BME280;21840;44.920;8.616;2022-12-07T02:33:20;100238.59;;;7.05;58.58
35716;BME280;21840;44.920;8.616;2022-12-07T02:36:01;100242.94;;;6.82;59.89
35716;BME280;21840;44.920;8.616;2022-12-07T02:38:35;100248.16;;;6.82;58.86
35716;BME280;21840;44.920;8.616;2022-12-07T02:41:10;100248.13;;;7.18;58.81
35716;BME280;21840;44.920;8.616;2022-12-07T02:43:41;100256.09;;;6.81;59.17
35716;BME280;21840;44.920;8.616;2022-12-07T02:46:17;100246.00;;;7.23;58.72
35716;BME280;21840;44.920;8.616;2022-12-07T02:48:45;100244.97;;;6.90;58.55
35716;BME280;21840;44.920;8.616;2022-12-07T02:51:11;100243.72;;;7.07;58.58
35716;BME280;21840;44.920;8.616;2022-12-07T02:53:41;100235.84;;;6.84;59.39
35716;BME280;21840;44.920;8.616;2022-12-07T03:06:53;100239.56;;;7.16;58.98
35716;BME280;21840;44.920;8.616;2022-12-07T03:09:34;100240.66;;;7.24;58.29
35716;BME280;21840;44.920;8.616;2022-12-07T03:12:12;100227.03;;;7.43;57.89
35716;BME280;21840;44.920;8.616;2022-12-07T03:14:46;100237.09;;;6.79;58.50
35716;BME280;21840;44.920;8.616;2022-12-07T03:17:24;100229.22;;;6.91;58.41
35716;BME280;21840;44.920;8.616;2022-12-07T03:19:53;100219.09;;;6.87;58.20
35716;BME280;21840;44.920;8.616;2022-12-07T03:22:22;100226.28;;;6.72;58.46
35716;BME280;21840;44.920;8.616;2022-12-07T03:24:55;100214.22;;;6.82;57.79
35716;BME280;21840;44.920;8.616;2022-12-07T03:27:25;100219.69;;;6.90;57.33
35716;BME280;21840;44.920;8.616;2022-12-07T03:30:02;100217.13;;;7.02;57.78
35716;BME280;21840;44.920;8.616;2022-12-07T03:32:45;100214.69;;;7.34;57.17
35716;BME280;21840;44.920;8.616;2022-12-07T03:37:49;100217.16;;;6.66;59.05
35716;BME280;21840;44.920;8.616;2022-12-07T03:40:33;100213.41;;;6.46;59.50
35716;BME280;21840;44.920;8.616;2022-12-07T03:43:00;100209.72;;;6.84;58.76
35716;BME280;21840;44.920;8.616;2022-12-07T03:45:53;100211.53;;;6.95;58.40
35716;BME280;21840;44.920;8.616;2022-12-07T03:51:38;100196.63;;;7.31;57.58
35716;BME280;21840;44.920;8.616;2022-12-07T03:54:22;100197.56;;;7.07;58.15
35716;BME280;21840;44.920;8.616;2022-12-07T03:56:49;100198.22;;;6.87;58.92
35716;BME280;21840;44.920;8.616;2022-12-07T03:59:15;100199.00;;;6.65;59.58
35716;BME280;21840;44.920;8.616;2022-12-07T04:01:51;100195.13;;;6.82;59.67
35716;BME280;21840;44.920;8.616;2022-12-07T04:04:18;100191.31;;;6.86;58.34
35716;BME280;21840;44.920;8.616;2022-12-07T04:06:43;100190.13;;;6.79;59.32
35716;BME280;21840;44.920;8.616;2022-12-07T04:09:09;100195.56;;;6.76;59.14
35716;BME280;21840;44.920;8.616;2022-12-07T04:11:34;100189.34;;;6.89;58.98
35716;BME280;21840;44.920;8.616;2022-12-07T04:13:59;100183.09;;;6.57;59.37
35716;BME280;21840;44.920;8.616;2022-12-07T04:16:55;100181.50;;;6.89;58.62
35716;BME280;21840;44.920;8.616;2022-12-07T04:19:26;100176.66;;;7.07;58.40
35716;BME280;21840;44.920;8.616;2022-12-07T04:21:52;100181.16;;;7.05;58.77
35716;BME280;21840;44.920;8.616;2022-12-07T04:24:18;100176.78;;;7.28;58.02
35716;BME280;21840;44.920;8.616;2022-12-07T04:26:44;100186.38;;;7.05;58.34
35716;BME280;21840;44.920;8.616;2022-12-07T04:29:11;100189.81;;;6.95;59.06
35716;BME280;21840;44.920;8.616;2022-12-07T04:31:36;100183.81;;;7.17;57.96
35716;BME280;21840;44.920;8.616;2022-12-07T04:34:02;100191.25;;;7.21;58.10
35716;BME280;21840;44.920;8.616;2022-12-07T04:36:28;100189.97;;;7.38;58.26
35716;BME280;21840;44.920;8.616;2022-12-07T04:38:55;100192.59;;;7.38;57.58
35716;BME280;21840;44.920;8.616;2022-12-07T04:41:21;100192.59;;;7.49;57.39
35716;BME280;21840;44.920;8.616;2022-12-07T04:44:03;100184.50;;;7.30;57.32
35716;BME280;21840;44.920;8.616;2022-12-07T04:46:31;100187.72;;;7.45;57.10
35716;BME280;21840;44.920;8.616;2022-12-07T04:48:57;100187.72;;;7.45;57.47
35716;BME280;21840;44.920;8.616;2022-12-07T04:51:26;100189.63;;;7.09;57.49
35716;BME280;21840;44.920;8.616;2022-12-07T04:53:52;100190.91;;;7.26;58.41
35716;BME280;21840;44.920;8.616;2022-12-07T04:56:18;100196.97;;;7.15;58.29
35716;BME280;21840;44.920;8.616;2022-12-07T04:58:45;100188.31;;;7.26;58.17
35716;BME280;21840;44.920;8.616;2022-12-07T05:01:12;100183.44;;;7.32;57.59
35716;BME280;21840;44.920;8.616;2022-12-07T05:03:38;100184.00;;;7.02;58.55
35716;BME280;21840;44.920;8.616;2022-12-07T05:06:04;100178.28;;;6.86;59.26
35716;BME280;21840;44.920;8.616;2022-12-07T05:08:30;100180.44;;;6.92;58.52
35716;BME280;21840;44.920;8.616;2022-12-07T05:10:55;100184.97;;;7.12;58.52
35716;BME280;21840;44.920;8.616;2022-12-07T05:13:21;100183.00;;;6.69;59.43
35716;BME280;21840;44.920;8.616;2022-12-07T05:15:47;100185.94;;;7.11;58.51
35716;BME280;21840;44.920;8.616;2022-12-07T05:18:13;100192.56;;;7.16;58.26
35716;BME280;21840;44.920;8.616;2022-12-07T05:20:40;100193.41;;;7.16;57.43
35716;BME280;21840;44.920;8.616;2022-12-07T05:23:05;100188.91;;;7.29;57.19
35716;BME280;21840;44.920;8.616;2022-12-07T05:25:31;100193.59;;;6.90;57.59
35716;BME280;21840;44.920;8.616;2022-12-07T05:27:57;100191.75;;;6.68;58.55
35716;BME280;21840;44.920;8.616;2022-12-07T05:30:23;100181.28;;;7.15;57.95
35716;BME280;21840;44.920;8.616;2022-12-07T05:32:49;100188.75;;;6.97;58.23
35716;BME280;21840;44.920;8.616;2022-12-07T05:35:15;100185.69;;;7.26;57.47
35716;BME280;21840;44.920;8.616;2022-12-07T05:37:40;100190.19;;;7.12;56.80
35716;BME280;21840;44.920;8.616;2022-12-07T05:40:06;100195.34;;;7.37;57.24
35716;BME280;21840;44.920;8.616;2022-12-07T05:42:32;100185.53;;;6.94;58.17
35716;BME280;21840;44.920;8.616;2022-12-07T05:44:57;100193.03;;;7.21;57.51
35716;BME280;21840;44.920;8.616;2022-12-07T05:47:23;100200.59;;;6.90;58.41
35716;BME280;21840;44.920;8.616;2022-12-07T05:49:48;100190.66;;;6.95;58.43
35716;BME280;21840;44.920;8.616;2022-12-07T05:52:14;100186.88;;;7.10;58.50
35716;BME280;21840;44.920;8.616;2022-12-07T05:54:39;100184.69;;;6.82;57.91
35716;BME280;21840;44.920;8.616;2022-12-07T05:57:05;100185.19;;;6.87;58.41
35716;BME280;21840;44.920;8.616;2022-12-07T05:59:30;100193.59;;;6.90;57.87
35716;BME280;21840;44.920;8.616;2022-12-07T06:01:58;100190.31;;;7.22;56.92
35716;BME280;21840;44.920;8.616;2022-12-07T06:04:26;100189.25;;;7.25;56.98
35716;BME280;21840;44.920;8.616;2022-12-07T06:06:52;100196.72;;;7.18;57.17
35716;BME280;21840;44.920;8.616;2022-12-07T06:09:19;100194.31;;;7.04;57.51
35716;BME280;21840;44.920;8.616;2022-12-07T06:11:46;100202.00;;;6.83;58.54
35716;BME280;21840;44.920;8.616;2022-12-07T06:14:30;100197.44;;;7.09;57.60
35716;BME280;21840;44.920;8.616;2022-12-07T06:16:59;100199.25;;;7.42;56.64
35716;BME280;21840;44.920;8.616;2022-12-07T06:19:25;100194.59;;;7.12;57.05
35716;BME280;21840;44.920;8.616;2022-12-07T06:21:50;100193.78;;;7.23;56.79
35716;BME280;21840;44.920;8.616;2022-12-07T06:24:17;100188.41;;;7.13;56.87
35716;BME280;21840;44.920;8.616;2022-12-07T06:26:43;100191.63;;;7.28;56.66
35716;BME280;21840;44.920;8.616;2022-12-07T06:29:10;100189.84;;;7.17;56.78
35716;BME280;21840;44.920;8.616;2022-12-07T06:31:36;100188.31;;;7.15;56.84
35716;BME280;21840;44.920;8.616;2022-12-07T06:34:09;100190.81;;;7.50;56.03
35716;BME280;21840;44.920;8.616;2022-12-07T06:36:34;100191.72;;;7.04;56.80
35716;BME280;21840;44.920;8.616;2022-12-07T06:39:00;100202.66;;;7.20;56.83
35716;BME280;21840;44.920;8.616;2022-12-07T06:41:26;100189.28;;;7.47;56.39
35716;BME280;21840;44.920;8.616;2022-12-07T06:43:51;100199.84;;;7.34;55.89
35716;BME280;21840;44.920;8.616;2022-12-07T06:46:17;100201.63;;;7.56;56.23
35716;BME280;21840;44.920;8.616;2022-12-07T06:48:43;100202.44;;;7.46;55.89
35716;BME280;21840;44.920;8.616;2022-12-07T06:51:09;100198.28;;;7.66;55.15
35716;BME280;21840;44.920;8.616;2022-12-07T06:53:35;100205.53;;;7.17;55.60
35716;BME280;21840;44.920;8.616;2022-12-07T06:56:01;100196.63;;;7.42;55.55
35716;BME280;21840;44.920;8.616;2022-12-07T06:58:27;100200.44;;;7.27;55.57
35716;BME280;21840;44.920;8.616;2022-12-07T07:00:53;100210.38;;;7.78;54.68
35716;BME280;21840;44.920;8.616;2022-12-07T07:03:18;100206.66;;;8.03;54.05
35716;BME280;21840;44.920;8.616;2022-12-07T07:05:44;100208.25;;;7.61;53.82
35716;BME280;21840;44.920;8.616;2022-12-07T07:08:10;100212.53;;;7.84;54.13
35716;BME280;21840;44.920;8.616;2022-12-07T07:10:36;100195.94;;;8.17;53.43
35716;BME280;21840;44.920;8.616;2022-12-07T07:13:02;100200.88;;;8.32;53.16
35716;BME280;21840;44.920;8.616;2022-12-07T07:15:32;100206.44;;;8.38;53.10
35716;BME280;21840;44.920;8.616;2022-12-07T07:17:57;100199.63;;;8.04;53.01
35716;BME280;21840;44.920;8.616;2022-12-07T07:20:23;100200.94;;;8.53;52.40
35716;BME280;21840;44.920;8.616;2022-12-07T07:22:49;100212.75;;;7.92;53.22
35716;BME280;21840;44.920;8.616;2022-12-07T07:25:15;100217.47;;;8.10;53.35
35716;BME280;21840;44.920;8.616;2022-12-07T07:27:41;100213.22;;;8.41;52.84
35716;BME280;21840;44.920;8.616;2022-12-07T07:30:07;100220.50;;;8.26;53.28
35716;BME280;21840;44.920;8.616;2022-12-07T07:32:33;100212.44;;;8.29;52.88
35716;BME280;21840;44.920;8.616;2022-12-07T07:34:59;100223.34;;;8.46;52.92
35716;BME280;21840;44.920;8.616;2022-12-07T07:37:24;100224.94;;;8.58;52.93
35716;BME280;21840;44.920;8.616;2022-12-07T07:39:50;100221.56;;;8.35;52.79
35716;BME280;21840;44.920;8.616;2022-12-07T07:42:16;100228.81;;;8.42;52.57
35716;BME280;21840;44.920;8.616;2022-12-07T07:44:42;100226.59;;;8.27;53.39
35716;BME280;21840;44.920;8.616;2022-12-07T07:47:08;100231.41;;;8.54;52.68
35716;BME280;21840;44.920;8.616;2022-12-07T07:49:33;100233.88;;;8.88;52.30
35716;BME280;21840;44.920;8.616;2022-12-07T07:51:59;100234.06;;;8.63;52.37
35716;BME280;21840;44.920;8.616;2022-12-07T07:54:24;100243.63;;;8.85;52.22
35716;BME280;21840;44.920;8.616;2022-12-07T07:56:50;100235.03;;;8.95;52.31
35716;BME280;21840;44.920;8.616;2022-12-07T07:59:15;100246.31;;;8.42;52.62
35716;BME280;21840;44.920;8.616;2022-12-07T08:01:41;100247.16;;;8.20;53.24
35716;BME280;21840;44.920;8.616;2022-12-07T08:04:06;100243.28;;;8.58;52.81
35716;BME280;21840;44.920;8.616;2022-12-07T08:06:32;100247.53;;;8.91;52.36
35716;BME280;21840;44.920;8.616;2022-12-07T08:08:57;100245.31;;;8.87;52.20
35716;BME280;21840;44.920;8.616;2022-12-07T08:11:24;100250.72;;;8.95;52.46
35716;BME280;21840;44.920;8.616;2022-12-07T08:13:50;100245.19;;;9.09;52.16
35716;BME280;21840;44.920;8.616;2022-12-07T08:16:15;100252.44;;;8.84;51.84
35716;BME280;21840;44.920;8.616;2022-12-07T08:18:42;100244.09;;;8.58;52.25
35716;BME280;21840;44.920;8.616;2022-12-07T08:21:11;100245.69;;;9.03;51.84
35716;BME280;21840;44.920;8.616;2022-12-07T08:23:37;100252.91;;;9.11;51.42
35716;BME280;21840;44.920;8.616;2022-12-07T08:26:04;100256.66;;;9.18;51.52
35716;BME280;21840;44.920;8.616;2022-12-07T08:28:30;100259.34;;;9.27;50.98
35716;BME280;21840;44.920;8.616;2022-12-07T08:31:13;100259.09;;;9.31;50.79
35716;BME280;21840;44.920;8.616;2022-12-07T08:33:40;100259.72;;;9.23;51.55
35716;BME280;21840;44.920;8.616;2022-12-07T08:36:11;100266.78;;;9.53;50.63
35716;BME280;21840;44.920;8.616;2022-12-07T08:38:37;100256.50;;;9.10;51.32
35716;BME280;21840;44.920;8.616;2022-12-07T08:41:04;100259.03;;;9.21;50.85
35716;BME280;21840;44.920;8.616;2022-12-07T08:43:30;100258.59;;;9.37;50.79
35716;BME280;21840;44.920;8.616;2022-12-07T08:51:46;100260.34;;;9.57;50.06
35716;BME280;21840;44.920;8.616;2022-12-07T08:54:16;100263.78;;;9.88;49.18
35716;BME280;21840;44.920;8.616;2022-12-07T08:56:43;100267.50;;;9.96;48.89
35716;BME280;21840;44.920;8.616;2022-12-07T08:59:10;100266.56;;;9.97;48.98
35716;BME280;21840;44.920;8.616;2022-12-07T09:01:38;100270.56;;;9.60;49.87
35716;BME280;21840;44.920;8.616;2022-12-07T09:04:04;100276.13;;;9.46;49.92
35716;BME280;21840;44.920;8.616;2022-12-07T09:06:29;100280.25;;;9.69;49.96
35716;BME280;21840;44.920;8.616;2022-12-07T09:08:58;100274.69;;;9.84;49.79
35716;BME280;21840;44.920;8.616;2022-12-07T09:11:26;100271.75;;;9.77;49.85
35716;BME280;21840;44.920;8.616;2022-12-07T09:13:51;100281.94;;;10.11;49.78
35716;BME280;21840;44.920;8.616;2022-12-07T09:16:17;100275.47;;;9.75;50.04
35716;BME280;21840;44.920;8.616;2022-12-07T09:18:42;100279.06;;;9.74;49.53
35716;BME280;21840;44.920;8.616;2022-12-07T09:21:08;100270.03;;;9.66;49.97
35716;BME280;21840;44.920;8.616;2022-12-07T09:23:34;100265.22;;;10.12;49.11
35716;BME280;21840;44.920;8.616;2022-12-07T09:26:02;100269.75;;;10.50;48.65
35716;BME280;21840;44.920;8.616;2022-12-07T09:28:30;100272.97;;;10.23;48.83
35716;BME280;21840;44.920;8.616;2022-12-07T09:30:56;100273.63;;;10.66;48.26
35716;BME280;21840;44.920;8.616;2022-12-07T09:33:21;100275.72;;;10.91;47.71
35716;BME280;21840;44.920;8.616;2022-12-07T09:35:48;100277.94;;;10.76;47.57
35716;BME280;21840;44.920;8.616;2022-12-07T09:38:14;100270.16;;;11.14;47.00
35716;BME280;21840;44.920;8.616;2022-12-07T09:40:40;100272.25;;;10.71;47.68
35716;BME280;21840;44.920;8.616;2022-12-07T09:43:21;100271.69;;;11.07;47.60
35716;BME280;21840;44.920;8.616;2022-12-07T09:45:48;100268.78;;;10.51;48.54
35716;BME280;21840;44.920;8.616;2022-12-07T09:50:46;100273.88;;;10.33;49.00
35716;BME280;21840;44.920;8.616;2022-12-07T09:53:30;100269.75;;;10.70;48.82
35716;BME280;21840;44.920;8.616;2022-12-07T09:55:59;100275.00;;;10.70;48.65
35716;BME280;21840;44.920;8.616;2022-12-07T09:58:26;100275.25;;;11.06;47.76
35716;BME280;21840;44.920;8.616;2022-12-07T10:01:15;100269.88;;;10.88;48.29
35716;BME280;21840;44.920;8.616;2022-12-07T10:06:15;100277.78;;;10.58;48.61
35716;BME280;21840;44.920;8.616;2022-12-07T10:08:40;100260.53;;;11.42;47.67
35716;BME280;21840;44.920;8.616;2022-12-07T10:11:11;100258.81;;;11.60;46.49
35716;BME280;21840;44.920;8.616;2022-12-07T10:13:46;100260.59;;;11.22;47.55
35716;BME280;21840;44.920;8.616;2022-12-07T10:16:38;100266.72;;;10.84;48.69
35716;BME280;21840;44.920;8.616;2022-12-07T10:19:24;100266.97;;;11.10;47.75
35716;BME280;21840;44.920;8.616;2022-12-07T10:22:10;100263.00;;;10.96;48.56
35716;BME280;21840;44.920;8.616;2022-12-07T10:24:36;100271.47;;;11.37;47.39
35716;BME280;21840;44.920;8.616;2022-12-07T10:27:05;100263.47;;;11.76;47.00
35716;BME280;21840;44.920;8.616;2022-12-07T10:29:38;100249.28;;;11.59;46.84
35716;BME280;21840;44.920;8.616;2022-12-07T10:34:37;100241.28;;;11.51;47.17
35716;BME280;21840;44.920;8.616;2022-12-07T10:39:49;100244.06;;;12.15;46.24
35716;BME280;21840;44.920;8.616;2022-12-07T10:42:24;100236.47;;;12.12;45.86
35716;BME280;21840;44.920;8.616;2022-12-07T10:47:36;100237.09;;;12.59;45.06
35716;BME280;21840;44.920;8.616;2022-12-07T10:55:27;100222.81;;;12.44;45.51
35716;BME280;21840;44.920;8.616;2022-12-07T10:58:11;100213.59;;;12.12;46.82
35716;BME280;21840;44.920;8.616;2022-12-07T11:06:37;100208.03;;;12.15;46.50
35716;BME280;21840;44.920;8.616;2022-12-07T11:11:51;100204.81;;;12.57;46.29
35716;BME280;21840;44.920;8.616;2022-12-07T11:17:14;100189.22;;;12.28;46.43
35716;BME280;21840;44.920;8.616;2022-12-07T11:19:50;100186.88;;;12.43;45.58
35716;BME280;21840;44.920;8.616;2022-12-07T11:22:27;100176.34;;;12.79;45.08
35716;BME280;21840;44.920;8.616;2022-12-07T11:30:19;100181.25;;;12.20;45.71
35716;BME280;21840;44.920;8.616;2022-12-07T11:33:11;100173.19;;;12.57;44.83
35716;BME280;21840;44.920;8.616;2022-12-07T11:38:33;100166.59;;;12.17;45.17
35716;BME280;21840;44.920;8.616;2022-12-07T11:41:02;100157.19;;;12.33;44.56
35716;BME280;21840;44.920;8.616;2022-12-07T11:43:57;100165.41;;;11.84;45.57
35716;BME280;21840;44.920;8.616;2022-12-07T11:46:27;100159.50;;;12.18;45.60
35716;BME280;21840;44.920;8.616;2022-12-07T11:49:10;100159.59;;;12.08;45.67
35716;BME280;21840;44.920;8.616;2022-12-07T11:51:40;100160.88;;;12.40;45.24
35716;BME280;21840;44.920;8.616;2022-12-07T11:54:28;100144.69;;;12.35;44.97
35716;BME280;21840;44.920;8.616;2022-12-07T11:56:56;100149.50;;;12.39;44.84
35716;BME280;21840;44.920;8.616;2022-12-07T11:59:39;100145.13;;;12.66;44.59
35716;BME280;21840;44.920;8.616;2022-12-07T12:02:14;100144.84;;;12.77;44.44
35716;BME280;21840;44.920;8.616;2022-12-07T12:04:45;100139.63;;;12.59;44.59
35716;BME280;21840;44.920;8.616;2022-12-07T12:07:14;100137.00;;;12.59;44.85
35716;BME280;21840;44.920;8.616;2022-12-07T12:09:58;100129.50;;;12.72;44.79
35716;BME280;21840;44.920;8.616;2022-12-07T12:15:52;100118.28;;;12.44;44.82
35716;BME280;21840;44.920;8.616;2022-12-07T12:21:04;100113.91;;;12.53;44.90
35716;BME280;21840;44.920;8.616;2022-12-07T12:23:44;100110.78;;;12.76;44.41
35716;BME280;21840;44.920;8.616;2022-12-07T12:26:33;100108.56;;;12.45;45.04
35716;BME280;21840;44.920;8.616;2022-12-07T12:31:47;100106.97;;;12.52;44.85
35716;BME280;21840;44.920;8.616;2022-12-07T12:42:48;100099.25;;;12.50;44.82
35716;BME280;21840;44.920;8.616;2022-12-07T12:51:36;100094.53;;;13.23;43.37
35716;BME280;21840;44.920;8.616;2022-12-07T12:54:10;100097.75;;;13.43;42.97
35716;BME280;21840;44.920;8.616;2022-12-07T12:59:24;100085.44;;;13.43;42.92
35716;BME280;21840;44.920;8.616;2022-12-07T13:01:54;100080.69;;;13.21;42.89
35716;BME280;21840;44.920;8.616;2022-12-07T13:04:24;100071.03;;;13.37;43.01
35716;BME280;21840;44.920;8.616;2022-12-07T13:06:51;100072.34;;;12.99;43.78
35716;BME280;21840;44.920;8.616;2022-12-07T13:09:31;100065.81;;;13.11;43.58
35716;BME280;21840;44.920;8.616;2022-12-07T13:12:04;100065.97;;;12.76;44.19
35716;BME280;21840;44.920;8.616;2022-12-07T13:19:54;100067.06;;;12.91;44.39
35716;BME280;21840;44.920;8.616;2022-12-07T13:27:27;100063.13;;;12.69;44.96
35716;BME280;21840;44.920;8.616;2022-12-07T13:29:54;100071.31;;;12.92;44.60
35716;BME280;21840;44.920;8.616;2022-12-07T13:32:32;100057.47;;;12.90;44.69
35716;BME280;21840;44.920;8.616;2022-12-07T13:34:57;100063.53;;;12.82;44.94
35716;BME280;21840;44.920;8.616;2022-12-07T13:37:28;100068.25;;;12.70;45.23
35716;BME280;21840;44.920;8.616;2022-12-07T13:40:00;100066.69;;;12.86;45.11
35716;BME280;21840;44.920;8.616;2022-12-07T13:42:28;100063.19;;;12.77;44.66
35716;BME280;21840;44.920;8.616;2022-12-07T13:44:55;100051.91;;;12.93;44.57
35716;BME280;21840;44.920;8.616;2022-12-07T13:47:41;100058.03;;;12.41;45.58
35716;BME280;21840;44.920;8.616;2022-12-07T13:50:29;100060.03;;;12.73;44.80
35716;BME280;21840;44.920;8.616;2022-12-07T13:52:59;100060.53;;;13.11;44.08
35716;BME280;21840;44.920;8.616;2022-12-07T13:55:25;100061.94;;;12.89;44.58
35716;BME280;21840;44.920;8.616;2022-12-07T13:57:52;100058.38;;;12.46;45.44
35716;BME280;21840;44.920;8.616;2022-12-07T14:00:24;100057.50;;;12.64;45.27
35716;BME280;21840;44.920;8.616;2022-12-07T14:05:41;100046.03;;;12.47;45.59
35716;BME280;21840;44.920;8.616;2022-12-07T14:10:39;100051.59;;;12.70;45.11
35716;BME280;21840;44.920;8.616;2022-12-07T14:13:29;100046.75;;;12.83;44.87
35716;BME280;21840;44.920;8.616;2022-12-07T14:15:56;100050.69;;;12.53;45.19
35716;BME280;21840;44.920;8.616;2022-12-07T14:18:39;100051.22;;;12.57;45.69
35716;BME280;21840;44.920;8.616;2022-12-07T14:23:34;100053.44;;;12.25;45.93
35716;BME280;21840;44.920;8.616;2022-12-07T14:26:19;100051.94;;;12.23;46.11
35716;BME280;21840;44.920;8.616;2022-12-07T14:28:45;100055.53;;;12.40;46.15
35716;BME280;21840;44.920;8.616;2022-12-07T14:31:14;100057.97;;;11.79;47.29
35716;BME280;21840;44.920;8.616;2022-12-07T14:33:40;100061.28;;;11.81;47.45
35716;BME280;21840;44.920;8.616;2022-12-07T14:36:09;100064.47;;;12.03;46.85
35716;BME280;21840;44.920;8.616;2022-12-07T14:38:34;100069.66;;;11.95;47.12
35716;BME280;21840;44.920;8.616;2022-12-07T14:41:00;100060.50;;;11.99;46.87
35716;BME280;21840;44.920;8.616;2022-12-07T14:43:44;100067.81;;;11.77;47.56
35716;BME280;21840;44.920;8.616;2022-12-07T14:46:10;100067.41;;;12.00;47.18
35716;BME280;21840;44.920;8.616;2022-12-07T14:48:35;100067.13;;;11.75;47.47
35716;BME280;21840;44.920;8.616;2022-12-07T14:51:01;100070.25;;;12.06;46.92
35716;BME280;21840;44.920;8.616;2022-12-07T14:53:33;100065.69;;;11.91;47.20
35716;BME280;21840;44.920;8.616;2022-12-07T14:56:00;100067.06;;;11.85;47.44
35716;BME280;21840;44.920;8.616;2022-12-07T14:58:25;100063.97;;;11.54;48.47
35716;BME280;21840;44.920;8.616;2022-12-07T15:00:51;100065.03;;;11.61;48.29